Time;durP1;ratioP1;P1;durP2;ratioP2;P2;SDS_P1;SDS_P2;PMS_P1;PMS_P2;Temp;Humidity;BMP_temperature;BMP_pressure;BME280_temperature;BME280_humidity;BME280_pressure;Samples;Min_cycle;Max_cycle;Signal;HPM_P1;HPM_P2
2023/04/09 00:02:58;;;;;;;48.78;32.10;;;7.30;99.90;;;;;;7276801;32;20092;-55
2023/04/09 00:07:00;;;;;;;50.67;32.75;;;7.30;99.90;;;;;;7280245;32;20658;-55
2023/04/09 00:11:02;;;;;;;50.50;31.42;;;7.20;99.90;;;;;;7279955;32;20116;-55
2023/04/09 00:15:05;;;;;;;51.65;32.28;;;7.20;99.90;;;;;;7279982;32;20322;-55
2023/04/09 00:19:06;;;;;;;48.38;33.47;;;7.10;99.90;;;;;;7276040;32;20158;-56
2023/04/09 00:23:08;;;;;;;53.95;31.77;;;7.00;99.90;;;;;;7279640;32;20228;-55
2023/04/09 00:27:13;;;;;;;49.53;32.72;;;6.90;99.90;;;;;;7278907;32;20232;-56
2023/04/09 00:31:15;;;;;;;54.47;31.35;;;6.80;99.90;;;;;;7276270;32;20610;-56
2023/04/09 00:35:17;;;;;;;51.10;32.75;;;6.70;99.90;;;;;;7278380;32;20495;-55
2023/04/09 00:39:18;;;;;;;47.08;32.22;;;6.60;99.90;;;;;;7279059;32;20203;-55
2023/04/09 00:43:21;;;;;;;51.45;31.67;;;6.50;99.90;;;;;;7280524;32;20136;-55
2023/04/09 00:47:22;;;;;;;50.40;31.00;;;6.40;99.90;;;;;;7280122;32;20127;-55
2023/04/09 00:51:25;;;;;;;47.00;30.92;;;6.30;99.90;;;;;;7273779;32;20162;-55
2023/04/09 00:55:27;;;;;;;46.67;30.45;;;6.30;99.90;;;;;;7277034;32;20181;-55
2023/04/09 00:59:30;;;;;;;49.55;30.92;;;6.20;99.90;;;;;;7273504;32;20138;-55
2023/04/09 01:03:32;;;;;;;43.85;29.70;;;6.20;99.90;;;;;;7278999;32;20392;-56
2023/04/09 01:07:45;;;;;;;46.05;30.10;;;6.10;99.90;;;;;;7279427;32;20150;-55
2023/04/09 01:12:13;;;;;;;44.45;27.83;;;6.00;99.90;;;;;;7278568;32;20123;-55
2023/04/09 01:16:18;;;;;;;45.10;28.95;;;5.90;99.90;;;;;;7274414;32;20498;-55
2023/04/09 01:20:26;;;;;;;42.83;27.73;;;5.80;99.90;;;;;;7268803;32;20384;-55
2023/04/09 01:24:30;;;;;;;43.30;28.17;;;5.60;99.90;;;;;;7283845;32;20109;-55
2023/04/09 01:28:35;;;;;;;42.97;28.05;;;5.50;99.90;;;;;;7281037;32;20233;-55
2023/04/09 01:32:38;;;;;;;44.17;28.55;;;5.50;99.90;;;;;;7280348;32;20207;-55
2023/04/09 01:36:41;;;;;;;44.70;28.70;;;5.40;99.90;;;;;;7278333;32;20555;-55
2023/04/09 01:40:43;;;;;;;44.92;28.75;;;5.30;99.90;;;;;;7283413;32;20602;-55
2023/04/09 01:44:45;;;;;;;44.60;26.98;;;5.30;99.90;;;;;;7278649;32;20201;-55
2023/04/09 01:48:48;;;;;;;42.33;27.17;;;5.30;99.90;;;;;;7275710;32;20181;-55
2023/04/09 01:52:50;;;;;;;39.67;26.35;;;5.30;99.90;;;;;;7287196;32;20096;-55
2023/04/09 01:56:52;;;;;;;46.80;27.23;;;5.30;99.90;;;;;;7276912;32;20096;-55
2023/04/09 02:01:37;;;;;;;41.50;28.10;;;5.20;99.90;;;;;;7276512;32;20126;-55
2023/04/09 02:05:45;;;;;;;39.40;25.62;;;5.20;99.90;;;;;;7190325;32;20319;-55
2023/04/09 02:09:48;;;;;;;40.25;25.55;;;5.20;99.90;;;;;;7279564;32;20174;-55
2023/04/09 02:13:53;;;;;;;41.97;27.00;;;5.30;99.90;;;;;;7280080;32;20135;-55
2023/04/09 02:17:54;;;;;;;43.20;27.60;;;5.20;99.90;;;;;;7277186;32;20130;-55
2023/04/09 02:21:56;;;;;;;47.20;28.00;;;5.10;99.90;;;;;;7281760;32;20211;-55
2023/04/09 02:25:58;;;;;;;40.92;26.85;;;5.10;99.90;;;;;;7277290;32;20523;-55
2023/04/09 02:30:00;;;;;;;41.37;27.02;;;5.00;99.90;;;;;;7279057;32;20306;-55
2023/04/09 02:34:02;;;;;;;39.97;26.02;;;4.90;99.90;;;;;;7277876;32;20117;-55
2023/04/09 02:38:04;;;;;;;41.80;25.00;;;4.80;99.90;;;;;;7280868;32;20492;-55
2023/04/09 02:42:06;;;;;;;39.70;24.80;;;4.70;99.90;;;;;;7271484;32;20116;-55
2023/04/09 02:46:08;;;;;;;42.35;26.60;;;4.60;99.90;;;;;;7271812;32;20123;-55
2023/04/09 02:50:10;;;;;;;36.88;25.15;;;4.50;99.90;;;;;;7278606;32;20115;-55
2023/04/09 02:54:12;;;;;;;35.83;23.33;;;4.50;99.90;;;;;;7280763;32;20187;-55
2023/04/09 02:58:13;;;;;;;39.15;24.48;;;4.30;99.90;;;;;;7275015;32;20536;-55
2023/04/09 03:02:15;;;;;;;42.47;24.95;;;4.20;99.90;;;;;;7273776;32;20183;-55
2023/04/09 03:06:17;;;;;;;41.50;25.40;;;4.30;99.90;;;;;;7270808;32;20097;-55
2023/04/09 03:10:19;;;;;;;39.33;24.05;;;4.00;99.90;;;;;;7276668;32;20576;-57
2023/04/09 03:14:21;;;;;;;38.55;24.75;;;4.00;99.90;;;;;;7277873;32;20128;-55
2023/04/09 03:18:22;;;;;;;39.15;25.10;;;3.90;99.90;;;;;;7279069;32;20304;-55
2023/04/09 03:22:24;;;;;;;38.65;23.02;;;3.80;99.90;;;;;;7276493;32;20119;-55
2023/04/09 03:26:26;;;;;;;38.92;24.35;;;3.70;99.90;;;;;;7274432;32;20191;-55
2023/04/09 03:30:28;;;;;;;39.13;23.08;;;3.60;99.90;;;;;;7275940;32;20179;-55
2023/04/09 03:34:30;;;;;;;36.80;22.75;;;3.60;99.90;;;;;;7275900;32;20317;-55
2023/04/09 03:38:32;;;;;;;44.55;24.55;;;3.50;99.90;;;;;;7280835;32;20154;-55
2023/04/09 03:42:34;;;;;;;36.40;21.85;;;3.40;99.90;;;;;;7284620;32;20918;-55
2023/04/09 03:46:36;;;;;;;36.95;21.50;;;3.40;99.90;;;;;;7283902;32;20175;-55
2023/04/09 03:50:39;;;;;;;36.33;21.98;;;3.30;99.90;;;;;;7288583;32;20104;-55
2023/04/09 03:54:42;;;;;;;32.30;20.05;;;3.20;99.90;;;;;;7279952;32;20265;-55
2023/04/09 03:58:44;;;;;;;36.75;22.00;;;3.20;99.90;;;;;;7293540;32;20221;-55
2023/04/09 04:02:45;;;;;;;34.10;21.05;;;3.10;99.90;;;;;;7282877;32;20104;-55
2023/04/09 04:06:47;;;;;;;34.20;21.60;;;3.00;99.90;;;;;;7285605;32;20223;-55
2023/04/09 04:10:49;;;;;;;36.70;20.62;;;3.00;99.90;;;;;;7288735;32;20262;-55
2023/04/09 04:14:51;;;;;;;31.73;20.77;;;2.90;99.90;;;;;;7294638;32;20245;-55
2023/04/09 04:18:52;;;;;;;31.30;18.73;;;2.90;99.90;;;;;;7292360;32;20401;-55
2023/04/09 04:22:55;;;;;;;34.70;20.20;;;2.80;99.90;;;;;;7288443;32;20181;-54
2023/04/09 04:26:56;;;;;;;31.25;20.02;;;2.80;99.90;;;;;;7290966;32;20170;-55
2023/04/09 04:30:58;;;;;;;31.40;19.73;;;2.70;99.90;;;;;;7290983;32;20185;-54
2023/04/09 04:35:00;;;;;;;31.10;19.30;;;2.60;99.90;;;;;;7291799;32;20122;-55
2023/04/09 04:39:01;;;;;;;31.58;19.83;;;2.60;99.90;;;;;;7291626;32;20594;-54
2023/04/09 04:43:03;;;;;;;39.88;19.85;;;2.60;99.90;;;;;;7289840;32;20255;-54
2023/04/09 04:47:05;;;;;;;29.63;18.70;;;2.50;99.90;;;;;;7290906;32;20726;-54
2023/04/09 04:51:06;;;;;;;33.90;20.02;;;2.50;99.90;;;;;;7289417;32;20316;-55
2023/04/09 04:55:08;;;;;;;34.50;20.10;;;2.50;99.90;;;;;;7284616;32;20239;-55
2023/04/09 04:59:10;;;;;;;29.55;19.17;;;2.40;99.90;;;;;;7287950;32;20104;-55
2023/04/09 05:03:12;;;;;;;30.12;18.73;;;2.40;99.90;;;;;;7283667;32;20406;-55
2023/04/09 05:07:14;;;;;;;29.45;19.42;;;2.30;99.90;;;;;;7278631;32;20152;-54
2023/04/09 05:11:16;;;;;;;29.83;17.52;;;2.30;99.90;;;;;;7279596;32;20175;-55
2023/04/09 05:15:18;;;;;;;28.50;17.80;;;2.40;99.90;;;;;;7282808;32;20352;-57
2023/04/09 05:19:20;;;;;;;29.90;17.58;;;2.40;99.90;;;;;;7270637;32;20104;-55
2023/04/09 05:23:21;;;;;;;30.88;18.62;;;2.40;99.90;;;;;;7279280;32;20571;-55
2023/04/09 05:27:24;;;;;;;26.85;17.83;;;2.50;99.90;;;;;;7272477;32;20274;-54
2023/04/09 05:31:26;;;;;;;30.75;18.85;;;2.60;99.90;;;;;;7281431;32;20123;-54
2023/04/09 05:35:28;;;;;;;31.25;18.42;;;2.70;99.90;;;;;;7276927;32;20195;-56
2023/04/09 05:39:31;;;;;;;30.20;18.70;;;2.80;99.90;;;;;;7267135;32;20138;-55
2023/04/09 05:43:33;;;;;;;30.25;18.75;;;2.90;99.90;;;;;;7271921;32;20233;-55
2023/04/09 05:47:35;;;;;;;31.25;18.48;;;3.00;99.90;;;;;;7280386;32;20232;-55
2023/04/09 05:51:37;;;;;;;30.10;18.20;;;3.00;99.90;;;;;;7280696;32;20540;-55
2023/04/09 05:55:38;;;;;;;31.77;18.35;;;3.10;99.90;;;;;;7271679;32;20238;-55
2023/04/09 05:59:40;;;;;;;25.83;17.45;;;3.20;99.90;;;;;;7269828;32;20108;-55
2023/04/09 06:03:42;;;;;;;33.80;18.77;;;3.30;99.90;;;;;;7273971;32;20219;-55
2023/04/09 06:07:44;;;;;;;26.80;17.75;;;3.40;99.90;;;;;;7278796;32;20096;-54
2023/04/09 06:11:46;;;;;;;29.02;17.98;;;3.50;99.90;;;;;;7287889;32;20191;-55
2023/04/09 06:15:48;;;;;;;34.15;19.30;;;3.50;99.90;;;;;;7290906;32;20245;-55
2023/04/09 06:19:49;;;;;;;31.30;19.45;;;3.70;99.90;;;;;;7278209;32;20207;-55
2023/04/09 06:23:52;;;;;;;32.15;18.73;;;3.80;99.90;;;;;;7282840;32;20150;-55
2023/04/09 06:27:55;;;;;;;26.83;18.08;;;3.90;99.90;;;;;;7280717;32;20757;-54
2023/04/09 06:31:58;;;;;;;25.92;16.23;;;4.10;99.90;;;;;;7283370;32;20100;-56
2023/04/09 06:36:00;;;;;;;26.37;15.43;;;4.30;99.90;;;;;;7283781;32;20282;-56
2023/04/09 06:40:02;;;;;;;22.95;14.60;;;4.50;99.90;;;;;;7266216;32;20146;-57
2023/04/09 06:44:04;;;;;;;25.12;14.68;;;4.90;99.90;;;;;;7275258;32;20148;-56
2023/04/09 06:48:06;;;;;;;20.52;13.62;;;5.20;99.90;;;;;;7274317;32;20210;-56
2023/04/09 06:52:07;;;;;;;22.23;13.05;;;5.50;99.90;;;;;;7281753;32;20196;-57
2023/04/09 06:56:10;;;;;;;20.77;12.32;;;5.70;99.90;;;;;;7282172;32;20353;-57
2023/04/09 07:00:12;;;;;;;18.83;12.32;;;5.90;99.90;;;;;;7280101;32;20511;-57
2023/04/09 07:04:14;;;;;;;19.45;12.65;;;6.40;99.90;;;;;;7272152;32;20274;-57
2023/04/09 07:08:16;;;;;;;20.10;13.15;;;6.70;99.90;;;;;;7272997;32;20100;-57
2023/04/09 07:12:26;;;;;;;17.62;11.35;;;7.00;99.90;;;;;;7280546;32;20130;-57
2023/04/09 07:16:28;;;;;;;18.92;11.77;;;7.20;99.90;;;;;;7265294;32;20572;-57
2023/04/09 07:20:30;;;;;;;17.25;12.05;;;7.50;99.90;;;;;;7265609;32;20238;-57
2023/04/09 07:24:31;;;;;;;17.50;11.73;;;7.70;99.90;;;;;;7273710;32;20206;-57
2023/04/09 07:28:33;;;;;;;16.67;9.98;;;8.00;99.90;;;;;;7268670;32;20104;-57
2023/04/09 07:32:36;;;;;;;18.58;11.15;;;8.10;99.90;;;;;;7270754;32;20151;-57
2023/04/09 07:36:39;;;;;;;15.25;10.70;;;8.30;99.90;;;;;;7275781;32;20462;-57
2023/04/09 07:40:41;;;;;;;14.98;10.45;;;8.50;99.90;;;;;;7271275;32;20157;-57
2023/04/09 07:44:43;;;;;;;14.52;10.10;;;9.00;99.90;;;;;;7276465;32;20146;-57
2023/04/09 07:48:45;;;;;;;14.57;9.70;;;9.40;99.90;;;;;;7272348;32;20797;-58
2023/04/09 07:52:49;;;;;;;13.07;9.25;;;10.30;99.90;;;;;;7271535;32;20143;-58
2023/04/09 07:56:51;;;;;;;13.38;8.32;;;10.70;99.90;;;;;;7272916;32;20130;-57
2023/04/09 08:00:52;;;;;;;12.60;8.45;;;11.00;99.90;;;;;;7271920;32;20603;-57
2023/04/09 08:04:54;;;;;;;10.52;8.15;;;11.20;99.90;;;;;;7259796;32;20239;-57
2023/04/09 08:08:56;;;;;;;10.38;7.65;;;11.80;99.90;;;;;;7273676;32;20100;-57
2023/04/09 08:12:58;;;;;;;11.65;7.80;;;12.30;99.90;;;;;;7272024;32;20195;-58
2023/04/09 08:17:00;;;;;;;11.00;8.48;;;13.10;99.90;;;;;;7269520;32;20196;-58
2023/04/09 08:21:04;;;;;;;11.25;8.13;;;13.50;99.90;;;;;;7273006;32;20203;-58
2023/04/09 08:25:06;;;;;;;12.02;8.13;;;13.50;99.90;;;;;;7280066;32;20227;-62
2023/04/09 08:29:09;;;;;;;10.30;8.15;;;14.10;99.90;;;;;;7275801;32;20277;-57
2023/04/09 08:33:11;;;;;;;11.00;7.93;;;14.20;99.90;;;;;;7276377;32;20195;-58
2023/04/09 08:37:12;;;;;;;8.48;6.97;;;14.10;99.90;;;;;;7280624;32;20175;-58
2023/04/09 08:41:23;;;;;;;10.93;7.85;;;14.60;99.90;;;;;;7277038;32;20182;-57
2023/04/09 08:45:25;;;;;;;10.25;7.15;;;14.70;99.90;;;;;;7283685;32;21757;-57
2023/04/09 08:49:27;;;;;;;8.20;7.03;;;15.00;99.90;;;;;;7280018;32;20179;-57
2023/04/09 08:53:29;;;;;;;9.05;7.10;;;15.40;99.90;;;;;;7276616;32;20196;-57
2023/04/09 08:57:36;;;;;;;8.88;6.55;;;16.00;99.90;;;;;;7281553;32;20127;-57
2023/04/09 09:01:38;;;;;;;8.43;6.72;;;16.70;99.80;;;;;;7274993;32;20503;-58
2023/04/09 09:05:42;;;;;;;8.82;7.00;;;16.60;96.70;;;;;;7279831;32;20359;-58
2023/04/09 09:09:58;;;;;;;8.25;6.90;;;15.80;96.60;;;;;;7279032;32;20092;-58
2023/04/09 09:14:00;;;;;;;8.68;7.18;;;15.90;97.20;;;;;;7283135;32;20209;-58
2023/04/09 09:18:02;;;;;;;8.30;6.87;;;16.50;95.30;;;;;;7281225;32;20558;-58
2023/04/09 09:22:07;;;;;;;7.70;6.47;;;16.90;93.40;;;;;;7281216;32;20294;-59
2023/04/09 09:26:19;;;;;;;7.00;6.30;;;16.90;91.10;;;;;;7283779;32;20750;-57
2023/04/09 09:30:23;;;;;;;8.50;6.20;;;17.10;90.90;;;;;;7263355;32;20175;-58
2023/04/09 09:34:25;;;;;;;6.93;5.85;;;17.40;88.50;;;;;;7278176;32;20506;-58
2023/04/09 09:38:26;;;;;;;6.95;5.97;;;17.30;89.80;;;;;;7279995;32;20108;-59
2023/04/09 09:42:28;;;;;;;7.22;6.47;;;18.40;84.90;;;;;;7280844;32;20189;-58
2023/04/09 09:46:41;;;;;;;7.47;6.37;;;18.80;79.30;;;;;;7269904;32;20239;-56
2023/04/09 09:50:45;;;;;;;7.30;6.22;;;19.30;77.20;;;;;;7281517;32;20592;-56
2023/04/09 09:54:51;;;;;;;6.20;5.60;;;19.80;76.50;;;;;;7275556;32;20116;-57
2023/04/09 09:58:58;;;;;;;6.35;5.50;;;19.80;72.10;;;;;;7279944;32;20217;-56
2023/04/09 10:03:10;;;;;;;6.10;5.28;;;20.00;68.50;;;;;;7283725;32;20298;-55
2023/04/09 10:07:14;;;;;;;7.35;5.82;;;20.30;65.10;;;;;;7279163;32;20108;-56
2023/04/09 10:11:18;;;;;;;5.90;4.95;;;20.60;64.00;;;;;;7281307;32;20186;-57
2023/04/09 10:15:20;;;;;;;5.78;5.03;;;21.20;69.80;;;;;;7280697;32;20715;-56
2023/04/09 10:19:22;;;;;;;5.53;4.60;;;22.90;60.90;;;;;;7281470;32;20191;-56
2023/04/09 10:23:36;;;;;;;6.07;4.82;;;23.20;61.30;;;;;;7282475;32;20171;-57
2023/04/09 10:27:38;;;;;;;6.30;5.20;;;23.80;57.50;;;;;;7285835;32;20111;-57
2023/04/09 10:32:03;;;;;;;6.87;5.20;;;22.10;55.20;;;;;;7286422;32;20217;-56
2023/04/09 10:36:09;;;;;;;7.10;5.55;;;19.60;57.70;;;;;;7288413;32;20095;-57
2023/04/09 10:40:19;;;;;;;6.50;5.53;;;19.10;61.20;;;;;;7275042;32;20120;-56
2023/04/09 10:44:23;;;;;;;6.55;5.43;;;19.70;61.10;;;;;;7283708;32;20730;-57
2023/04/09 10:48:25;;;;;;;6.18;5.15;;;20.90;60.20;;;;;;7279056;32;20135;-57
2023/04/09 10:52:30;;;;;;;6.30;5.55;;;20.70;58.70;;;;;;7283612;32;20100;-57
2023/04/09 10:56:32;;;;;;;7.15;5.47;;;19.30;60.70;;;;;;7284611;32;20100;-57
2023/04/09 11:00:41;;;;;;;7.00;5.28;;;19.70;64.30;;;;;;7283789;32;20187;-58
2023/04/09 11:05:22;;;;;;;5.87;5.28;;;19.70;60.70;;;;;;7280435;32;20364;-58
2023/04/09 11:09:24;;;;;;;7.32;5.70;;;20.30;64.30;;;;;;7277051;32;20420;-57
2023/04/09 11:13:27;;;;;;;6.28;5.20;;;18.70;61.60;;;;;;7277468;32;20160;-59
2023/04/09 11:17:34;;;;;;;5.50;4.97;;;19.10;69.20;;;;;;7275565;32;21844;-55
2023/04/09 11:21:36;;;;;;;6.50;5.80;;;20.50;64.10;;;;;;7264018;32;20096;-58
2023/04/09 11:25:38;;;;;;;5.25;4.72;;;21.30;58.80;;;;;;7276609;32;20242;-58
2023/04/09 11:29:41;;;;;;;6.37;5.32;;;22.00;58.50;;;;;;7261038;32;20124;-58
2023/04/09 11:33:45;;;;;;;5.62;4.82;;;21.70;56.10;;;;;;7275570;32;20126;-58
2023/04/09 11:37:48;;;;;;;6.00;5.20;;;21.70;58.00;;;;;;7278531;32;20104;-58
2023/04/09 11:41:51;;;;;;;5.75;4.97;;;22.10;59.60;;;;;;7271579;32;20171;-58
2023/04/09 11:45:53;;;;;;;6.35;5.28;;;22.60;59.00;;;;;;7277947;32;20099;-58
2023/04/09 11:49:58;;;;;;;6.72;5.68;;;21.80;55.40;;;;;;7275610;32;20176;-55
2023/04/09 11:54:07;;;;;;;7.15;5.40;;;20.50;56.20;;;;;;7275622;32;20297;-55
2023/04/09 11:58:10;;;;;;;7.37;5.50;;;19.90;61.10;;;;;;7261354;32;20147;-67
2023/04/09 12:02:16;;;;;;;5.68;4.57;;;20.30;59.10;;;;;;7289653;32;20196;-67
2023/04/09 12:06:21;;;;;;;5.47;4.78;;;21.50;56.40;;;;;;7271290;32;20749;-57
2023/04/09 12:10:30;;;;;;;7.32;5.12;;;22.10;55.50;;;;;;7281918;32;20826;-58
2023/04/09 12:14:32;;;;;;;5.05;4.18;;;22.80;56.50;;;;;;7287882;32;20233;-58
2023/04/09 12:18:39;;;;;;;5.45;4.95;;;24.10;52.80;;;;;;7276853;32;20284;-59
2023/04/09 12:22:40;;;;;;;7.35;5.65;;;22.70;55.20;;;;;;7282595;32;20118;-58
2023/04/09 12:26:44;;;;;;;6.37;5.60;;;21.10;53.50;;;;;;7278330;32;20116;-58
2023/04/09 12:30:47;;;;;;;7.37;6.03;;;19.20;58.40;;;;;;7278472;32;20528;-58
2023/04/09 12:34:48;;;;;;;6.65;5.72;;;17.80;62.40;;;;;;7269589;32;20112;-58
2023/04/09 12:38:50;;;;;;;7.65;5.78;;;17.80;65.00;;;;;;7279316;32;20889;-58
2023/04/09 12:42:53;;;;;;;6.18;5.18;;;20.00;60.70;;;;;;7276388;32;20146;-58
2023/04/09 12:46:55;;;;;;;5.90;4.70;;;20.40;57.70;;;;;;7284943;32;20554;-61
2023/04/09 12:50:56;;;;;;;6.57;5.37;;;20.40;61.30;;;;;;7279781;32;20178;-61
2023/04/09 12:54:58;;;;;;;7.72;6.12;;;18.90;64.30;;;;;;7278405;32;20209;-60
2023/04/09 12:59:00;;;;;;;6.05;5.32;;;19.00;63.10;;;;;;7273449;32;20515;-58
2023/04/09 13:03:02;;;;;;;7.15;5.70;;;18.30;65.00;;;;;;7278036;32;20203;-58
2023/04/09 13:07:04;;;;;;;7.28;5.90;;;18.40;67.70;;;;;;7267511;32;20183;-58
2023/04/09 13:11:06;;;;;;;5.55;5.00;;;19.80;60.00;;;;;;7278694;32;20116;-58
2023/04/09 13:15:08;;;;;;;6.90;5.65;;;19.40;60.20;;;;;;7282399;32;20136;-57
2023/04/09 13:19:10;;;;;;;6.37;4.75;;;18.40;63.40;;;;;;7277739;32;20138;-58
2023/04/09 13:23:11;;;;;;;5.72;5.12;;;17.50;67.90;;;;;;7280583;32;20154;-58
2023/04/09 13:27:13;;;;;;;5.87;4.93;;;18.30;68.50;;;;;;7275791;32;20219;-59
2023/04/09 13:31:15;;;;;;;5.72;4.95;;;18.20;68.30;;;;;;7277009;32;20108;-56
2023/04/09 13:35:17;;;;;;;5.80;4.80;;;18.10;68.00;;;;;;7280278;32;20107;-56
2023/04/09 13:39:19;;;;;;;6.93;5.15;;;18.00;67.60;;;;;;7278638;32;20506;-59
2023/04/09 13:43:26;;;;;;;5.70;4.78;;;17.90;68.70;;;;;;7277537;32;20232;-57
2023/04/09 13:47:28;;;;;;;5.57;4.62;;;17.60;66.80;;;;;;7283839;32;20173;-56
2023/04/09 13:51:30;;;;;;;5.60;5.00;;;16.90;67.10;;;;;;7274771;32;20171;-56
2023/04/09 13:55:32;;;;;;;5.47;4.72;;;16.00;69.40;;;;;;7266534;32;20283;-56
2023/04/09 13:59:33;;;;;;;5.28;4.15;;;16.00;73.30;;;;;;7280228;32;20103;-57
2023/04/09 14:03:37;;;;;;;4.45;3.90;;;16.60;70.70;;;;;;7276254;32;20777;-56
2023/04/09 14:07:39;;;;;;;5.00;4.18;;;17.30;68.60;;;;;;7289902;32;20149;-57
2023/04/09 14:11:40;;;;;;;5.18;4.20;;;18.50;71.00;;;;;;7265891;32;20104;-57
2023/04/09 14:15:44;;;;;;;5.93;4.55;;;20.20;61.60;;;;;;7281616;32;20104;-57
2023/04/09 14:19:45;;;;;;;4.37;3.80;;;20.70;58.40;;;;;;7285816;32;20253;-57
2023/04/09 14:23:47;;;;;;;5.47;3.87;;;20.90;58.60;;;;;;7270852;32;20135;-57
2023/04/09 14:27:49;;;;;;;5.00;3.92;;;20.30;59.20;;;;;;7285597;32;20150;-56
2023/04/09 14:31:51;;;;;;;4.68;3.80;;;19.40;59.10;;;;;;7290202;32;20194;-56
2023/04/09 14:35:55;;;;;;;4.20;3.80;;;18.20;64.20;;;;;;7281387;32;20339;-57
2023/04/09 14:39:56;;;;;;;5.03;4.25;;;18.30;66.10;;;;;;7276989;32;20225;-57
2023/04/09 14:43:58;;;;;;;5.18;4.15;;;17.90;63.90;;;;;;7268134;32;20134;-57
2023/04/09 14:48:00;;;;;;;4.70;4.10;;;17.60;63.60;;;;;;7279266;32;20171;-58
2023/04/09 14:52:02;;;;;;;4.70;3.55;;;17.10;64.70;;;;;;7278518;32;20124;-57
2023/04/09 14:56:04;;;;;;;4.57;3.72;;;16.90;67.70;;;;;;7272979;32;20186;-57
2023/04/09 15:00:07;;;;;;;4.10;3.65;;;16.60;68.80;;;;;;7278868;32;20181;-57
2023/04/09 15:04:09;;;;;;;5.53;4.05;;;16.30;69.30;;;;;;7283909;32;20210;-57
2023/04/09 15:08:12;;;;;;;5.60;3.58;;;16.30;71.50;;;;;;7277586;32;20298;-58
2023/04/09 15:12:14;;;;;;;4.87;3.92;;;16.30;72.00;;;;;;7267720;32;20144;-58
2023/04/09 15:16:24;;;;;;;5.62;4.37;;;16.10;70.90;;;;;;7274744;32;20249;-62
2023/04/09 15:20:26;;;;;;;5.97;4.45;;;15.80;71.80;;;;;;7271434;32;20135;-62
2023/04/09 15:24:28;;;;;;;4.85;4.03;;;15.60;71.90;;;;;;7262245;32;20134;-62
2023/04/09 15:28:30;;;;;;;6.40;4.68;;;15.50;74.50;;;;;;7270233;32;20141;-61
2023/04/09 15:32:32;;;;;;;5.60;3.90;;;15.70;74.10;;;;;;7272327;32;20128;-62
2023/04/09 15:36:34;;;;;;;4.53;3.95;;;15.60;72.50;;;;;;7272546;32;20439;-61
2023/04/09 15:40:35;;;;;;;4.40;3.58;;;15.60;74.90;;;;;;7278682;32;20662;-61
2023/04/09 15:44:38;;;;;;;4.47;3.67;;;15.50;73.20;;;;;;7277992;32;20147;-61
2023/04/09 15:48:40;;;;;;;4.70;3.60;;;15.50;73.20;;;;;;7257713;32;20307;-62
2023/04/09 15:52:42;;;;;;;5.87;4.50;;;15.20;75.60;;;;;;7274281;32;20254;-61
2023/04/09 15:56:44;;;;;;;6.37;3.80;;;14.90;75.80;;;;;;7272446;32;20116;-61
2023/04/09 16:00:46;;;;;;;4.22;3.80;;;14.90;78.80;;;;;;7272502;32;20119;-58
2023/04/09 16:04:48;;;;;;;4.50;3.70;;;15.10;77.60;;;;;;7278475;32;20200;-57
2023/04/09 16:08:50;;;;;;;8.18;5.28;;;15.00;76.30;;;;;;7272597;32;20109;-58
2023/04/09 16:12:52;;;;;;;7.55;5.15;;;14.70;81.10;;;;;;7281551;32;20137;-58
2023/04/09 16:16:54;;;;;;;5.68;4.68;;;14.30;81.70;;;;;;7272508;32;20192;-57
2023/04/09 16:20:56;;;;;;;7.22;4.60;;;14.30;84.00;;;;;;7263615;32;20268;-57
2023/04/09 16:24:58;;;;;;;6.10;4.35;;;14.10;84.70;;;;;;7274267;32;20403;-57
2023/04/09 16:29:02;;;;;;;6.35;4.75;;;13.80;89.60;;;;;;7275288;32;20143;-57
2023/04/09 16:33:05;;;;;;;5.12;4.62;;;13.90;90.10;;;;;;7272957;32;20724;-59
2023/04/09 16:37:07;;;;;;;4.85;4.28;;;13.70;89.40;;;;;;7276739;32;20194;-58
2023/04/09 16:41:08;;;;;;;5.45;4.30;;;13.70;91.00;;;;;;7270722;32;20154;-57
2023/04/09 16:45:10;;;;;;;5.40;4.50;;;13.60;92.40;;;;;;7276428;32;20211;-58
2023/04/09 16:49:12;;;;;;;6.87;4.65;;;13.50;91.90;;;;;;7273472;32;20176;-58
2023/04/09 16:53:14;;;;;;;5.50;4.60;;;13.60;92.00;;;;;;7260832;32;20135;-58
2023/04/09 16:57:16;;;;;;;6.05;4.28;;;13.50;91.80;;;;;;7274077;32;20196;-58
2023/04/09 17:01:18;;;;;;;5.18;4.20;;;13.50;91.90;;;;;;7281769;32;20171;-59
2023/04/09 17:05:21;;;;;;;4.90;3.65;;;13.60;91.40;;;;;;7276596;32;20116;-57
2023/04/09 17:09:23;;;;;;;5.10;3.75;;;13.40;91.50;;;;;;7271580;32;20362;-57
2023/04/09 17:13:26;;;;;;;4.32;3.92;;;13.40;92.80;;;;;;7283091;32;20765;-57
2023/04/09 17:17:27;;;;;;;5.75;4.60;;;13.40;92.30;;;;;;7274634;32;20282;-57
2023/04/09 17:21:29;;;;;;;5.25;4.30;;;13.30;91.50;;;;;;7264182;32;20313;-57
2023/04/09 17:25:31;;;;;;;4.90;3.80;;;13.20;93.10;;;;;;7259744;32;20644;-57
2023/04/09 17:29:33;;;;;;;4.78;4.20;;;13.10;91.90;;;;;;7279170;32;20521;-58
2023/04/09 17:33:35;;;;;;;5.30;3.90;;;13.00;93.10;;;;;;7261896;32;20170;-57
2023/04/09 17:37:37;;;;;;;5.85;4.35;;;12.90;93.80;;;;;;7277007;32;20136;-57
2023/04/09 17:41:39;;;;;;;8.18;4.45;;;12.70;95.50;;;;;;7258369;32;20209;-57
2023/04/09 17:45:41;;;;;;;6.07;3.87;;;12.50;96.30;;;;;;7275183;32;20125;-57
2023/04/09 17:49:43;;;;;;;4.62;3.58;;;12.30;96.30;;;;;;7273390;32;20474;-58
2023/04/09 17:53:46;;;;;;;5.47;4.35;;;12.30;96.90;;;;;;7274203;32;20673;-58
2023/04/09 17:57:47;;;;;;;5.68;4.60;;;12.10;98.10;;;;;;7270804;32;20135;-58
2023/04/09 18:01:49;;;;;;;5.03;4.43;;;11.90;98.80;;;;;;7277560;32;20506;-58
2023/04/09 18:05:52;;;;;;;5.85;4.53;;;11.80;98.80;;;;;;7275298;32;20300;-58
2023/04/09 18:09:54;;;;;;;4.90;4.00;;;11.70;99.90;;;;;;7276191;32;20262;-57
2023/04/09 18:13:56;;;;;;;5.87;4.10;;;11.50;99.90;;;;;;7274530;32;20131;-58
2023/04/09 18:17:58;;;;;;;5.68;4.30;;;11.30;99.90;;;;;;7273981;32;20259;-58
2023/04/09 18:22:00;;;;;;;5.87;5.00;;;11.20;99.90;;;;;;7284257;32;20514;-58
2023/04/09 18:26:02;;;;;;;7.22;4.20;;;11.10;99.90;;;;;;7274773;32;20133;-58
2023/04/09 18:30:04;;;;;;;4.68;3.85;;;10.90;99.90;;;;;;7261566;32;20563;-57
2023/04/09 18:34:06;;;;;;;5.15;4.12;;;10.80;99.90;;;;;;7276909;32;20241;-57
2023/04/09 18:38:07;;;;;;;5.37;4.20;;;10.60;99.90;;;;;;7277482;32;20889;-63
2023/04/09 18:42:09;;;;;;;5.60;4.40;;;10.40;99.90;;;;;;7276325;32;20207;-63
2023/04/09 18:46:11;;;;;;;5.37;4.20;;;10.30;99.90;;;;;;7263511;32;20206;-57
2023/04/09 18:50:17;;;;;;;6.57;4.97;;;10.10;99.90;;;;;;7273145;32;20134;-58
2023/04/09 18:54:19;;;;;;;6.90;4.32;;;10.00;99.90;;;;;;7278584;32;20187;-58
2023/04/09 18:58:21;;;;;;;5.22;4.18;;;9.90;99.90;;;;;;7278268;32;20132;-58
2023/04/09 19:02:23;;;;;;;5.37;4.55;;;9.70;99.90;;;;;;7279076;32;20162;-58
2023/04/09 19:06:26;;;;;;;13.55;9.82;;;9.70;99.90;;;;;;7274750;32;20201;-58
2023/04/09 19:10:28;;;;;;;8.60;5.90;;;9.60;99.90;;;;;;7273745;32;20116;-58
2023/04/09 19:14:30;;;;;;;6.50;4.87;;;9.40;99.90;;;;;;7272787;32;20432;-58
2023/04/09 19:18:33;;;;;;;6.55;4.57;;;9.30;99.90;;;;;;7271351;32;20853;-58
2023/04/09 19:22:35;;;;;;;6.95;4.35;;;9.10;99.90;;;;;;7273824;32;20755;-59
2023/04/09 19:26:37;;;;;;;6.78;4.60;;;9.00;99.90;;;;;;7275942;32;20112;-57
2023/04/09 19:30:39;;;;;;;6.70;4.87;;;8.90;99.90;;;;;;7278675;32;20199;-58
2023/04/09 19:34:41;;;;;;;9.98;4.45;;;8.80;99.90;;;;;;7272532;32;20501;-58
2023/04/09 19:38:43;;;;;;;6.93;4.90;;;8.60;99.90;;;;;;7273538;32;20226;-60
2023/04/09 19:42:44;;;;;;;7.60;4.70;;;8.50;99.90;;;;;;7273989;32;20127;-58
2023/04/09 19:46:46;;;;;;;8.82;4.90;;;8.40;99.90;;;;;;7270890;32;20824;-58
2023/04/09 19:50:48;;;;;;;7.70;5.10;;;8.20;99.90;;;;;;7273962;32;20202;-57
2023/04/09 19:54:55;;;;;;;6.87;4.97;;;8.10;99.90;;;;;;7272587;32;20132;-58
2023/04/09 19:58:56;;;;;;;9.77;5.77;;;8.00;99.90;;;;;;7275168;32;20190;-59
2023/04/09 20:02:58;;;;;;;12.63;9.05;;;7.90;99.90;;;;;;7273356;32;20850;-58
2023/04/09 20:07:00;;;;;;;13.70;9.15;;;7.90;99.90;;;;;;7274196;32;20155;-58
2023/04/09 20:11:02;;;;;;;10.73;7.12;;;7.70;99.90;;;;;;7270868;32;20174;-59
2023/04/09 20:15:06;;;;;;;7.40;5.45;;;7.60;99.90;;;;;;7274973;32;20136;-58
2023/04/09 20:19:10;;;;;;;7.75;5.20;;;7.40;99.90;;;;;;7272744;32;20237;-59
2023/04/09 20:23:12;;;;;;;8.95;5.70;;;7.30;99.90;;;;;;7278267;32;20627;-58
2023/04/09 20:27:14;;;;;;;10.18;5.62;;;7.20;99.90;;;;;;7279772;32;20150;-57
2023/04/09 20:31:15;;;;;;;8.10;5.22;;;7.10;99.90;;;;;;7279598;32;20993;-57
2023/04/09 20:35:18;;;;;;;8.65;5.80;;;6.90;99.90;;;;;;7276235;32;20230;-58
2023/04/09 20:39:21;;;;;;;8.82;5.93;;;6.80;99.90;;;;;;7280606;32;20139;-57
2023/04/09 20:43:22;;;;;;;7.85;5.22;;;6.70;99.90;;;;;;7280486;32;20564;-59
2023/04/09 20:47:25;;;;;;;8.40;5.87;;;6.60;99.90;;;;;;7282486;32;20116;-59
2023/04/09 20:51:29;;;;;;;11.85;5.90;;;6.60;99.90;;;;;;7265684;32;20157;-60
2023/04/09 20:55:31;;;;;;;8.50;5.65;;;6.50;99.90;;;;;;7280038;32;20108;-58
2023/04/09 20:59:33;;;;;;;10.43;5.82;;;6.40;99.90;;;;;;7271631;32;20509;-58